sensor_id;sensor_type;location;lat;lon;timestamp;P1;durP1;ratioP1;P2;durP2;ratioP2
6495;SDS011;3281;47.658;9.166;2024-03-02T00:00:48;2.90;;;2.50;;
6495;SDS011;3281;47.658;9.166;2024-03-02T00:03:15;2.57;;;2.13;;
6495;SDS011;3281;47.658;9.166;2024-03-02T00:05:43;3.80;;;2.00;;
6495;SDS011;3281;47.658;9.166;2024-03-02T00:08:14;4.23;;;2.40;;
6495;SDS011;3281;47.658;9.166;2024-03-02T00:10:51;2.00;;;1.83;;
6495;SDS011;3281;47.658;9.166;2024-03-02T00:13:23;2.17;;;1.77;;
6495;SDS011;3281;47.658;9.166;2024-03-02T00:15:51;2.53;;;2.20;;
6495;SDS011;3281;47.658;9.166;2024-03-02T00:18:19;2.13;;;1.43;;
6495;SDS011;3281;47.658;9.166;2024-03-02T00:20:53;2.73;;;2.33;;
6495;SDS011;3281;47.658;9.166;2024-03-02T00:23:21;2.00;;;1.57;;
6495;SDS011;3281;47.658;9.166;2024-03-02T00:25:48;2.07;;;1.67;;
6495;SDS011;3281;47.658;9.166;2024-03-02T00:28:19;1.57;;;1.47;;
6495;SDS011;3281;47.658;9.166;2024-03-02T00:30:55;2.67;;;2.43;;
6495;SDS011;3281;47.658;9.166;2024-03-02T00:33:23;1.93;;;1.80;;
6495;SDS011;3281;47.658;9.166;2024-03-02T00:35:55;1.70;;;1.60;;
6495;SDS011;3281;47.658;9.166;2024-03-02T00:38:22;3.33;;;1.83;;
6495;SDS011;3281;47.658;9.166;2024-03-02T00:40:49;7.07;;;1.77;;
6495;SDS011;3281;47.658;9.166;2024-03-02T00:43:27;2.47;;;1.67;;
6495;SDS011;3281;47.658;9.166;2024-03-02T00:46:06;1.83;;;1.73;;
6495;SDS011;3281;47.658;9.166;2024-03-02T00:48:32;2.97;;;2.67;;
6495;SDS011;3281;47.658;9.166;2024-03-02T00:51:02;4.43;;;2.37;;
6495;SDS011;3281;47.658;9.166;2024-03-02T00:53:29;2.97;;;2.37;;
6495;SDS011;3281;47.658;9.166;2024-03-02T00:55:57;2.47;;;2.20;;
6495;SDS011;3281;47.658;9.166;2024-03-02T00:58:24;2.43;;;2.17;;
6495;SDS011;3281;47.658;9.166;2024-03-02T01:00:51;1.53;;;1.37;;
6495;SDS011;3281;47.658;9.166;2024-03-02T01:03:18;2.77;;;1.73;;
6495;SDS011;3281;47.658;9.166;2024-03-02T01:05:45;3.90;;;2.57;;
6495;SDS011;3281;47.658;9.166;2024-03-02T01:08:13;3.13;;;2.33;;
6495;SDS011;3281;47.658;9.166;2024-03-02T01:10:40;2.17;;;1.70;;
6495;SDS011;3281;47.658;9.166;2024-03-02T01:13:06;4.93;;;2.13;;
6495;SDS011;3281;47.658;9.166;2024-03-02T01:15:33;6.67;;;2.40;;
6495;SDS011;3281;47.658;9.166;2024-03-02T01:18:00;4.13;;;2.50;;
6495;SDS011;3281;47.658;9.166;2024-03-02T01:20:27;2.23;;;2.03;;
6495;SDS011;3281;47.658;9.166;2024-03-02T01:22:53;4.33;;;2.60;;
6495;SDS011;3281;47.658;9.166;2024-03-02T01:25:21;3.90;;;2.93;;
6495;SDS011;3281;47.658;9.166;2024-03-02T01:27:48;3.03;;;2.57;;
6495;SDS011;3281;47.658;9.166;2024-03-02T01:30:15;2.87;;;2.63;;
6495;SDS011;3281;47.658;9.166;2024-03-02T01:32:42;3.77;;;2.83;;
6495;SDS011;3281;47.658;9.166;2024-03-02T01:35:09;5.73;;;3.27;;
6495;SDS011;3281;47.658;9.166;2024-03-02T01:37:35;3.30;;;2.17;;
6495;SDS011;3281;47.658;9.166;2024-03-02T01:40:02;3.23;;;2.53;;
6495;SDS011;3281;47.658;9.166;2024-03-02T01:42:35;7.53;;;3.00;;
6495;SDS011;3281;47.658;9.166;2024-03-02T01:45:03;4.07;;;2.93;;
6495;SDS011;3281;47.658;9.166;2024-03-02T01:47:30;3.13;;;2.57;;
6495;SDS011;3281;47.658;9.166;2024-03-02T01:49:57;2.50;;;2.27;;
6495;SDS011;3281;47.658;9.166;2024-03-02T01:52:24;6.37;;;3.27;;
6495;SDS011;3281;47.658;9.166;2024-03-02T01:54:51;4.90;;;3.80;;
6495;SDS011;3281;47.658;9.166;2024-03-02T01:57:18;3.93;;;3.10;;
6495;SDS011;3281;47.658;9.166;2024-03-02T01:59:46;6.33;;;3.07;;
6495;SDS011;3281;47.658;9.166;2024-03-02T02:02:13;4.20;;;3.27;;
6495;SDS011;3281;47.658;9.166;2024-03-02T02:04:40;4.40;;;2.43;;
6495;SDS011;3281;47.658;9.166;2024-03-02T02:07:07;4.80;;;2.97;;
6495;SDS011;3281;47.658;9.166;2024-03-02T02:09:33;3.83;;;2.80;;
6495;SDS011;3281;47.658;9.166;2024-03-02T02:12:00;2.63;;;2.37;;
6495;SDS011;3281;47.658;9.166;2024-03-02T02:14:27;3.13;;;2.80;;
6495;SDS011;3281;47.658;9.166;2024-03-02T02:16:56;4.97;;;3.10;;
6495;SDS011;3281;47.658;9.166;2024-03-02T02:19:22;3.47;;;3.20;;
6495;SDS011;3281;47.658;9.166;2024-03-02T02:21:50;4.63;;;2.73;;
6495;SDS011;3281;47.658;9.166;2024-03-02T02:24:17;3.87;;;2.40;;
6495;SDS011;3281;47.658;9.166;2024-03-02T02:26:44;3.73;;;2.93;;
6495;SDS011;3281;47.658;9.166;2024-03-02T02:29:10;2.73;;;1.90;;
6495;SDS011;3281;47.658;9.166;2024-03-02T02:31:37;5.27;;;3.27;;
6495;SDS011;3281;47.658;9.166;2024-03-02T02:34:04;5.07;;;3.53;;
6495;SDS011;3281;47.658;9.166;2024-03-02T02:36:31;2.87;;;2.50;;
6495;SDS011;3281;47.658;9.166;2024-03-02T02:39:01;3.73;;;2.77;;
6495;SDS011;3281;47.658;9.166;2024-03-02T02:41:29;3.00;;;1.77;;
6495;SDS011;3281;47.658;9.166;2024-03-02T02:43:56;3.27;;;1.87;;
6495;SDS011;3281;47.658;9.166;2024-03-02T02:46:23;3.20;;;2.90;;
6495;SDS011;3281;47.658;9.166;2024-03-02T02:48:49;3.20;;;2.47;;
6495;SDS011;3281;47.658;9.166;2024-03-02T02:51:18;4.77;;;2.60;;
6495;SDS011;3281;47.658;9.166;2024-03-02T02:53:45;2.37;;;2.00;;
6495;SDS011;3281;47.658;9.166;2024-03-02T02:56:13;4.87;;;3.10;;
6495;SDS011;3281;47.658;9.166;2024-03-02T02:58:39;3.57;;;3.27;;
6495;SDS011;3281;47.658;9.166;2024-03-02T03:01:07;3.40;;;2.70;;
6495;SDS011;3281;47.658;9.166;2024-03-02T03:03:33;2.90;;;2.17;;
6495;SDS011;3281;47.658;9.166;2024-03-02T03:06:00;7.30;;;3.53;;
6495;SDS011;3281;47.658;9.166;2024-03-02T03:08:27;1.87;;;1.37;;
6495;SDS011;3281;47.658;9.166;2024-03-02T03:10:54;4.53;;;2.93;;
6495;SDS011;3281;47.658;9.166;2024-03-02T03:13:22;3.47;;;2.63;;
6495;SDS011;3281;47.658;9.166;2024-03-02T03:15:49;2.93;;;2.20;;
6495;SDS011;3281;47.658;9.166;2024-03-02T03:18:16;2.13;;;1.93;;
6495;SDS011;3281;47.658;9.166;2024-03-02T03:20:43;3.13;;;1.67;;
6495;SDS011;3281;47.658;9.166;2024-03-02T03:23:09;2.63;;;2.30;;
6495;SDS011;3281;47.658;9.166;2024-03-02T03:25:40;3.67;;;2.10;;
6495;SDS011;3281;47.658;9.166;2024-03-02T03:28:06;2.07;;;1.87;;
6495;SDS011;3281;47.658;9.166;2024-03-02T03:30:36;1.83;;;1.73;;
6495;SDS011;3281;47.658;9.166;2024-03-02T03:33:03;2.47;;;2.27;;
6495;SDS011;3281;47.658;9.166;2024-03-02T03:35:30;3.67;;;2.23;;
6495;SDS011;3281;47.658;9.166;2024-03-02T03:37:57;2.00;;;1.90;;
6495;SDS011;3281;47.658;9.166;2024-03-02T03:40:24;2.83;;;2.43;;
6495;SDS011;3281;47.658;9.166;2024-03-02T03:42:51;5.33;;;2.93;;
6495;SDS011;3281;47.658;9.166;2024-03-02T03:45:18;2.37;;;1.63;;
6495;SDS011;3281;47.658;9.166;2024-03-02T03:47:46;2.33;;;2.13;;
6495;SDS011;3281;47.658;9.166;2024-03-02T03:50:13;2.97;;;2.70;;
6495;SDS011;3281;47.658;9.166;2024-03-02T03:52:39;6.50;;;2.57;;
6495;SDS011;3281;47.658;9.166;2024-03-02T03:55:06;2.63;;;2.30;;
6495;SDS011;3281;47.658;9.166;2024-03-02T03:57:34;2.93;;;2.57;;
6495;SDS011;3281;47.658;9.166;2024-03-02T04:00:00;4.37;;;2.43;;
6495;SDS011;3281;47.658;9.166;2024-03-02T04:02:27;3.27;;;2.33;;
6495;SDS011;3281;47.658;9.166;2024-03-02T04:04:55;3.00;;;2.47;;
6495;SDS011;3281;47.658;9.166;2024-03-02T04:07:22;4.57;;;2.53;;
6495;SDS011;3281;47.658;9.166;2024-03-02T04:09:48;3.23;;;2.70;;
6495;SDS011;3281;47.658;9.166;2024-03-02T04:12:15;3.23;;;2.93;;
6495;SDS011;3281;47.658;9.166;2024-03-02T04:14:42;2.33;;;1.80;;
6495;SDS011;3281;47.658;9.166;2024-03-02T04:17:08;4.13;;;2.50;;
6495;SDS011;3281;47.658;9.166;2024-03-02T04:19:35;3.97;;;2.57;;
6495;SDS011;3281;47.658;9.166;2024-03-02T04:22:03;2.70;;;2.00;;
6495;SDS011;3281;47.658;9.166;2024-03-02T04:24:30;6.13;;;2.27;;
6495;SDS011;3281;47.658;9.166;2024-03-02T04:26:57;1.97;;;1.80;;
6495;SDS011;3281;47.658;9.166;2024-03-02T04:29:23;1.97;;;1.73;;
6495;SDS011;3281;47.658;9.166;2024-03-02T04:31:50;26.00;;;2.37;;
6495;SDS011;3281;47.658;9.166;2024-03-02T04:34:17;4.63;;;2.67;;
6495;SDS011;3281;47.658;9.166;2024-03-02T04:36:43;2.80;;;2.40;;
6495;SDS011;3281;47.658;9.166;2024-03-02T04:39:11;4.63;;;2.27;;
6495;SDS011;3281;47.658;9.166;2024-03-02T04:41:38;2.47;;;1.83;;
6495;SDS011;3281;47.658;9.166;2024-03-02T04:44:05;2.73;;;2.23;;
6495;SDS011;3281;47.658;9.166;2024-03-02T04:46:33;3.63;;;2.13;;
6495;SDS011;3281;47.658;9.166;2024-03-02T04:48:59;2.13;;;1.93;;
6495;SDS011;3281;47.658;9.166;2024-03-02T04:51:26;3.83;;;1.97;;
6495;SDS011;3281;47.658;9.166;2024-03-02T04:53:53;2.10;;;1.93;;
6495;SDS011;3281;47.658;9.166;2024-03-02T04:56:21;2.63;;;2.43;;
6495;SDS011;3281;47.658;9.166;2024-03-02T04:59:05;3.90;;;2.13;;
6495;SDS011;3281;47.658;9.166;2024-03-02T05:01:32;4.10;;;2.60;;
6495;SDS011;3281;47.658;9.166;2024-03-02T05:03:59;2.77;;;2.17;;
6495;SDS011;3281;47.658;9.166;2024-03-02T05:06:26;2.67;;;2.10;;
6495;SDS011;3281;47.658;9.166;2024-03-02T05:08:52;3.67;;;2.23;;
6495;SDS011;3281;47.658;9.166;2024-03-02T05:11:20;2.47;;;2.07;;
6495;SDS011;3281;47.658;9.166;2024-03-02T05:14:10;2.77;;;2.20;;
6495;SDS011;3281;47.658;9.166;2024-03-02T05:16:37;5.03;;;2.17;;
6495;SDS011;3281;47.658;9.166;2024-03-02T05:19:05;3.43;;;2.20;;
6495;SDS011;3281;47.658;9.166;2024-03-02T05:21:32;3.93;;;2.67;;
6495;SDS011;3281;47.658;9.166;2024-03-02T05:23:59;2.63;;;2.43;;
6495;SDS011;3281;47.658;9.166;2024-03-02T05:26:27;1.90;;;1.73;;
6495;SDS011;3281;47.658;9.166;2024-03-02T05:28:54;3.80;;;2.53;;
6495;SDS011;3281;47.658;9.166;2024-03-02T05:31:21;2.33;;;1.63;;
6495;SDS011;3281;47.658;9.166;2024-03-02T05:33:47;3.63;;;2.60;;
6495;SDS011;3281;47.658;9.166;2024-03-02T05:36:14;3.40;;;1.80;;
6495;SDS011;3281;47.658;9.166;2024-03-02T05:38:41;2.40;;;2.20;;
6495;SDS011;3281;47.658;9.166;2024-03-02T05:41:07;3.03;;;2.73;;
6495;SDS011;3281;47.658;9.166;2024-03-02T05:43:35;3.00;;;2.00;;
6495;SDS011;3281;47.658;9.166;2024-03-02T05:46:02;1.73;;;1.63;;
6495;SDS011;3281;47.658;9.166;2024-03-02T05:48:29;3.77;;;3.03;;
6495;SDS011;3281;47.658;9.166;2024-03-02T05:50:56;2.80;;;2.20;;
6495;SDS011;3281;47.658;9.166;2024-03-02T05:53:22;4.43;;;2.53;;
6495;SDS011;3281;47.658;9.166;2024-03-02T05:55:49;3.40;;;2.27;;
6495;SDS011;3281;47.658;9.166;2024-03-02T05:58:18;2.47;;;2.23;;
6495;SDS011;3281;47.658;9.166;2024-03-02T06:00:57;2.90;;;2.53;;
6495;SDS011;3281;47.658;9.166;2024-03-02T06:03:24;3.63;;;1.77;;
6495;SDS011;3281;47.658;9.166;2024-03-02T06:05:51;4.53;;;2.50;;
6495;SDS011;3281;47.658;9.166;2024-03-02T06:08:17;4.40;;;2.57;;
6495;SDS011;3281;47.658;9.166;2024-03-02T06:10:44;4.63;;;3.67;;
6495;SDS011;3281;47.658;9.166;2024-03-02T06:13:11;4.80;;;3.13;;
6495;SDS011;3281;47.658;9.166;2024-03-02T06:15:38;3.43;;;2.47;;
6495;SDS011;3281;47.658;9.166;2024-03-02T06:18:06;3.50;;;2.80;;
6495;SDS011;3281;47.658;9.166;2024-03-02T06:20:33;1.70;;;1.60;;
6495;SDS011;3281;47.658;9.166;2024-03-02T06:23:00;3.07;;;2.50;;
6495;SDS011;3281;47.658;9.166;2024-03-02T06:25:26;2.93;;;2.27;;
6495;SDS011;3281;47.658;9.166;2024-03-02T06:27:53;3.40;;;2.17;;
6495;SDS011;3281;47.658;9.166;2024-03-02T06:30:20;2.87;;;2.40;;
6495;SDS011;3281;47.658;9.166;2024-03-02T06:32:46;3.63;;;2.47;;
6495;SDS011;3281;47.658;9.166;2024-03-02T06:35:14;2.53;;;2.07;;
6495;SDS011;3281;47.658;9.166;2024-03-02T06:37:41;2.87;;;2.60;;
6495;SDS011;3281;47.658;9.166;2024-03-02T06:40:08;2.83;;;2.37;;
6495;SDS011;3281;47.658;9.166;2024-03-02T06:42:35;8.27;;;2.57;;
6495;SDS011;3281;47.658;9.166;2024-03-02T06:45:02;2.93;;;2.20;;
6495;SDS011;3281;47.658;9.166;2024-03-02T06:47:29;2.10;;;1.87;;
6495;SDS011;3281;47.658;9.166;2024-03-02T06:49:56;1.60;;;1.50;;
6495;SDS011;3281;47.658;9.166;2024-03-02T06:52:24;2.23;;;1.43;;
6495;SDS011;3281;47.658;9.166;2024-03-02T06:54:51;2.67;;;1.87;;
6495;SDS011;3281;47.658;9.166;2024-03-02T06:57:18;2.07;;;1.40;;
6495;SDS011;3281;47.658;9.166;2024-03-02T06:59:45;2.47;;;1.60;;
6495;SDS011;3281;47.658;9.166;2024-03-02T07:02:13;3.73;;;1.50;;
6495;SDS011;3281;47.658;9.166;2024-03-02T07:04:40;1.30;;;1.20;;
6495;SDS011;3281;47.658;9.166;2024-03-02T07:07:07;3.00;;;2.10;;
6495;SDS011;3281;47.658;9.166;2024-03-02T07:09:35;6.10;;;2.47;;
6495;SDS011;3281;47.658;9.166;2024-03-02T07:12:01;3.03;;;2.10;;
6495;SDS011;3281;47.658;9.166;2024-03-02T07:14:28;2.50;;;2.30;;
6495;SDS011;3281;47.658;9.166;2024-03-02T07:17:09;2.30;;;1.50;;
6495;SDS011;3281;47.658;9.166;2024-03-02T07:19:36;3.20;;;2.07;;
6495;SDS011;3281;47.658;9.166;2024-03-02T07:22:05;3.10;;;1.73;;
6495;SDS011;3281;47.658;9.166;2024-03-02T07:24:34;2.57;;;2.37;;
6495;SDS011;3281;47.658;9.166;2024-03-02T07:27:05;3.17;;;1.87;;
6495;SDS011;3281;47.658;9.166;2024-03-02T07:29:32;3.10;;;2.07;;
6495;SDS011;3281;47.658;9.166;2024-03-02T07:31:59;5.33;;;2.03;;
6495;SDS011;3281;47.658;9.166;2024-03-02T07:34:26;3.20;;;1.30;;
6495;SDS011;3281;47.658;9.166;2024-03-02T07:36:52;2.00;;;1.83;;
6495;SDS011;3281;47.658;9.166;2024-03-02T07:39:19;2.73;;;2.20;;
6495;SDS011;3281;47.658;9.166;2024-03-02T07:41:47;2.47;;;1.87;;
6495;SDS011;3281;47.658;9.166;2024-03-02T07:44:15;2.07;;;1.83;;
6495;SDS011;3281;47.658;9.166;2024-03-02T07:46:44;2.30;;;2.10;;
6495;SDS011;3281;47.658;9.166;2024-03-02T07:49:11;2.80;;;2.43;;
6495;SDS011;3281;47.658;9.166;2024-03-02T07:51:39;2.47;;;1.80;;
6495;SDS011;3281;47.658;9.166;2024-03-02T07:54:06;4.67;;;3.00;;
6495;SDS011;3281;47.658;9.166;2024-03-02T07:56:32;3.83;;;2.93;;
6495;SDS011;3281;47.658;9.166;2024-03-02T07:59:00;3.13;;;2.70;;
6495;SDS011;3281;47.658;9.166;2024-03-02T08:01:27;4.37;;;2.30;;
6495;SDS011;3281;47.658;9.166;2024-03-02T08:03:55;3.27;;;2.47;;
6495;SDS011;3281;47.658;9.166;2024-03-02T08:06:23;4.60;;;2.27;;
6495;SDS011;3281;47.658;9.166;2024-03-02T08:08:52;5.97;;;3.47;;
6495;SDS011;3281;47.658;9.166;2024-03-02T08:11:19;4.67;;;3.17;;
6495;SDS011;3281;47.658;9.166;2024-03-02T08:13:46;4.20;;;2.60;;
6495;SDS011;3281;47.658;9.166;2024-03-02T08:16:14;4.10;;;3.10;;
6495;SDS011;3281;47.658;9.166;2024-03-02T08:18:44;1.90;;;1.57;;
6495;SDS011;3281;47.658;9.166;2024-03-02T08:21:11;2.50;;;2.30;;
6495;SDS011;3281;47.658;9.166;2024-03-02T08:23:38;3.63;;;2.50;;
6495;SDS011;3281;47.658;9.166;2024-03-02T08:26:07;2.43;;;2.23;;
6495;SDS011;3281;47.658;9.166;2024-03-02T08:28:34;5.70;;;2.50;;
6495;SDS011;3281;47.658;9.166;2024-03-02T08:31:02;2.80;;;2.57;;
6495;SDS011;3281;47.658;9.166;2024-03-02T08:33:30;3.63;;;2.30;;
6495;SDS011;3281;47.658;9.166;2024-03-02T08:35:57;3.63;;;2.73;;
6495;SDS011;3281;47.658;9.166;2024-03-02T08:38:23;3.33;;;2.23;;
6495;SDS011;3281;47.658;9.166;2024-03-02T08:40:50;6.53;;;2.93;;
6495;SDS011;3281;47.658;9.166;2024-03-02T08:43:17;3.70;;;2.97;;
6495;SDS011;3281;47.658;9.166;2024-03-02T08:45:44;3.10;;;2.40;;
6495;SDS011;3281;47.658;9.166;2024-03-02T08:48:12;5.23;;;3.17;;
6495;SDS011;3281;47.658;9.166;2024-03-02T08:50:40;2.33;;;2.13;;
6495;SDS011;3281;47.658;9.166;2024-03-02T08:53:07;6.90;;;3.33;;
6495;SDS011;3281;47.658;9.166;2024-03-02T08:55:34;5.07;;;2.80;;
6495;SDS011;3281;47.658;9.166;2024-03-02T08:58:00;3.67;;;2.03;;
6495;SDS011;3281;47.658;9.166;2024-03-02T09:00:27;5.17;;;3.33;;
6495;SDS011;3281;47.658;9.166;2024-03-02T09:02:54;3.93;;;2.37;;
6495;SDS011;3281;47.658;9.166;2024-03-02T09:05:21;3.80;;;3.23;;
6495;SDS011;3281;47.658;9.166;2024-03-02T09:07:49;8.37;;;3.47;;
6495;SDS011;3281;47.658;9.166;2024-03-02T09:10:15;2.90;;;2.67;;
6495;SDS011;3281;47.658;9.166;2024-03-02T09:12:42;4.20;;;3.27;;
6495;SDS011;3281;47.658;9.166;2024-03-02T09:15:09;3.60;;;2.43;;
6495;SDS011;3281;47.658;9.166;2024-03-02T09:17:36;5.77;;;3.13;;
6495;SDS011;3281;47.658;9.166;2024-03-02T09:20:03;10.97;;;5.13;;
6495;SDS011;3281;47.658;9.166;2024-03-02T09:22:30;5.33;;;3.47;;
6495;SDS011;3281;47.658;9.166;2024-03-02T09:24:58;8.47;;;3.87;;
6495;SDS011;3281;47.658;9.166;2024-03-02T09:27:25;3.17;;;2.53;;
6495;SDS011;3281;47.658;9.166;2024-03-02T09:29:52;5.20;;;3.53;;
6495;SDS011;3281;47.658;9.166;2024-03-02T09:32:18;3.80;;;3.43;;
6495;SDS011;3281;47.658;9.166;2024-03-02T09:34:45;2.90;;;2.60;;
6495;SDS011;3281;47.658;9.166;2024-03-02T09:37:13;3.27;;;2.60;;
6495;SDS011;3281;47.658;9.166;2024-03-02T09:39:39;3.10;;;2.57;;
6495;SDS011;3281;47.658;9.166;2024-03-02T09:42:10;4.67;;;3.30;;
6495;SDS011;3281;47.658;9.166;2024-03-02T09:44:38;4.53;;;3.30;;
6495;SDS011;3281;47.658;9.166;2024-03-02T09:47:06;2.97;;;2.07;;
6495;SDS011;3281;47.658;9.166;2024-03-02T09:49:34;3.27;;;2.77;;
6495;SDS011;3281;47.658;9.166;2024-03-02T09:52:01;3.10;;;2.70;;
6495;SDS011;3281;47.658;9.166;2024-03-02T09:54:30;3.67;;;2.80;;
6495;SDS011;3281;47.658;9.166;2024-03-02T09:56:56;3.93;;;3.33;;
6495;SDS011;3281;47.658;9.166;2024-03-02T09:59:24;3.50;;;2.37;;
6495;SDS011;3281;47.658;9.166;2024-03-02T10:01:56;2.47;;;1.87;;
6495;SDS011;3281;47.658;9.166;2024-03-02T10:04:25;4.50;;;3.00;;
6495;SDS011;3281;47.658;9.166;2024-03-02T10:06:54;3.60;;;2.53;;
6495;SDS011;3281;47.658;9.166;2024-03-02T10:09:36;4.83;;;3.27;;
6495;SDS011;3281;47.658;9.166;2024-03-02T10:12:04;3.67;;;2.60;;
6495;SDS011;3281;47.658;9.166;2024-03-02T10:14:33;2.23;;;1.80;;
6495;SDS011;3281;47.658;9.166;2024-03-02T10:17:03;2.13;;;1.33;;
6495;SDS011;3281;47.658;9.166;2024-03-02T10:19:32;2.90;;;2.33;;
6495;SDS011;3281;47.658;9.166;2024-03-02T10:22:00;2.50;;;2.10;;
6495;SDS011;3281;47.658;9.166;2024-03-02T10:24:28;2.60;;;2.30;;
6495;SDS011;3281;47.658;9.166;2024-03-02T10:27:02;2.63;;;2.20;;
6495;SDS011;3281;47.658;9.166;2024-03-02T10:29:35;1.97;;;1.77;;
6495;SDS011;3281;47.658;9.166;2024-03-02T10:32:03;2.17;;;1.97;;
6495;SDS011;3281;47.658;9.166;2024-03-02T10:34:31;2.33;;;2.07;;
6495;SDS011;3281;47.658;9.166;2024-03-02T10:36:58;2.40;;;1.70;;
6495;SDS011;3281;47.658;9.166;2024-03-02T10:39:25;2.90;;;2.20;;
6495;SDS011;3281;47.658;9.166;2024-03-02T10:41:52;3.07;;;2.70;;
6495;SDS011;3281;47.658;9.166;2024-03-02T10:44:21;2.20;;;1.73;;
6495;SDS011;3281;47.658;9.166;2024-03-02T10:46:50;3.43;;;1.73;;
6495;SDS011;3281;47.658;9.166;2024-03-02T10:49:18;3.40;;;2.93;;
6495;SDS011;3281;47.658;9.166;2024-03-02T10:51:47;2.17;;;1.67;;
6495;SDS011;3281;47.658;9.166;2024-03-02T10:54:14;2.60;;;1.50;;
6495;SDS011;3281;47.658;9.166;2024-03-02T10:56:41;1.60;;;1.50;;
6495;SDS011;3281;47.658;9.166;2024-03-02T10:59:13;2.22;;;1.58;;
6495;SDS011;3281;47.658;9.166;2024-03-02T11:01:48;1.75;;;1.65;;
6495;SDS011;3281;47.658;9.166;2024-03-02T11:04:18;1.20;;;1.10;;
6495;SDS011;3281;47.658;9.166;2024-03-02T11:06:48;0.80;;;0.80;;
6495;SDS011;3281;47.658;9.166;2024-03-02T11:09:16;1.55;;;1.45;;
6495;SDS011;3281;47.658;9.166;2024-03-02T11:11:46;2.50;;;1.85;;
6495;SDS011;3281;47.658;9.166;2024-03-02T11:14:18;2.60;;;2.17;;
6495;SDS011;3281;47.658;9.166;2024-03-02T11:16:51;1.33;;;1.23;;
6495;SDS011;3281;47.658;9.166;2024-03-02T11:19:19;1.88;;;1.70;;
6495;SDS011;3281;47.658;9.166;2024-03-02T11:21:46;1.88;;;1.60;;
6495;SDS011;3281;47.658;9.166;2024-03-02T11:24:28;1.67;;;1.30;;
6495;SDS011;3281;47.658;9.166;2024-03-02T11:26:58;1.60;;;1.50;;
6495;SDS011;3281;47.658;9.166;2024-03-02T11:32:14;1.38;;;1.27;;
6495;SDS011;3281;47.658;9.166;2024-03-02T11:34:43;1.33;;;1.23;;
6495;SDS011;3281;47.658;9.166;2024-03-02T11:37:12;1.25;;;1.17;;
6495;SDS011;3281;47.658;9.166;2024-03-02T11:39:39;1.42;;;1.33;;
6495;SDS011;3281;47.658;9.166;2024-03-02T11:42:06;1.95;;;1.35;;
6495;SDS011;3281;47.658;9.166;2024-03-02T11:44:34;1.27;;;1.20;;
6495;SDS011;3281;47.658;9.166;2024-03-02T11:47:04;1.20;;;1.13;;
6495;SDS011;3281;47.658;9.166;2024-03-02T11:49:40;0.98;;;0.90;;
6495;SDS011;3281;47.658;9.166;2024-03-02T11:52:08;1.67;;;1.52;;
6495;SDS011;3281;47.658;9.166;2024-03-02T11:54:36;1.75;;;1.40;;
6495;SDS011;3281;47.658;9.166;2024-03-02T11:57:05;1.70;;;1.60;;
6495;SDS011;3281;47.658;9.166;2024-03-02T11:59:32;0.93;;;0.93;;
6495;SDS011;3281;47.658;9.166;2024-03-02T12:01:59;1.50;;;1.40;;
6495;SDS011;3281;47.658;9.166;2024-03-02T12:04:27;1.45;;;1.35;;
6495;SDS011;3281;47.658;9.166;2024-03-02T12:06:57;1.98;;;1.42;;
6495;SDS011;3281;47.658;9.166;2024-03-02T12:09:28;1.85;;;1.33;;
6495;SDS011;3281;47.658;9.166;2024-03-02T12:12:02;1.50;;;1.20;;
6495;SDS011;3281;47.658;9.166;2024-03-02T12:14:30;1.27;;;1.17;;
6495;SDS011;3281;47.658;9.166;2024-03-02T12:16:57;1.27;;;1.17;;
6495;SDS011;3281;47.658;9.166;2024-03-02T12:19:24;1.52;;;0.98;;
6495;SDS011;3281;47.658;9.166;2024-03-02T12:21:51;1.60;;;1.08;;
6495;SDS011;3281;47.658;9.166;2024-03-02T12:24:20;1.58;;;1.40;;
6495;SDS011;3281;47.658;9.166;2024-03-02T12:26:48;2.17;;;1.67;;
6495;SDS011;3281;47.658;9.166;2024-03-02T12:29:15;1.20;;;1.10;;
6495;SDS011;3281;47.658;9.166;2024-03-02T12:31:42;1.42;;;1.33;;
6495;SDS011;3281;47.658;9.166;2024-03-02T12:34:10;2.58;;;1.48;;
6495;SDS011;3281;47.658;9.166;2024-03-02T12:36:39;1.98;;;1.77;;
6495;SDS011;3281;47.658;9.166;2024-03-02T12:39:06;3.35;;;1.80;;
6495;SDS011;3281;47.658;9.166;2024-03-02T12:41:36;1.48;;;1.30;;
6495;SDS011;3281;47.658;9.166;2024-03-02T12:44:03;2.33;;;1.92;;
6495;SDS011;3281;47.658;9.166;2024-03-02T12:46:30;0.82;;;0.82;;
6495;SDS011;3281;47.658;9.166;2024-03-02T12:48:57;1.45;;;1.23;;
6495;SDS011;3281;47.658;9.166;2024-03-02T12:51:26;1.52;;;1.42;;
6495;SDS011;3281;47.658;9.166;2024-03-02T12:53:53;2.40;;;1.58;;
6495;SDS011;3281;47.658;9.166;2024-03-02T12:56:21;1.83;;;1.35;;
6495;SDS011;3281;47.658;9.166;2024-03-02T12:58:52;1.20;;;1.10;;
6495;SDS011;3281;47.658;9.166;2024-03-02T13:01:20;1.60;;;1.33;;
6495;SDS011;3281;47.658;9.166;2024-03-02T13:03:48;1.60;;;1.50;;
6495;SDS011;3281;47.658;9.166;2024-03-02T13:06:16;1.35;;;1.23;;
6495;SDS011;3281;47.658;9.166;2024-03-02T13:08:44;1.17;;;1.02;;
6495;SDS011;3281;47.658;9.166;2024-03-02T13:11:11;1.23;;;1.13;;
6495;SDS011;3281;47.658;9.166;2024-03-02T13:13:38;1.08;;;0.90;;
6495;SDS011;3281;47.658;9.166;2024-03-02T13:16:09;1.10;;;1.00;;
6495;SDS011;3281;47.658;9.166;2024-03-02T13:18:36;1.55;;;1.45;;
6495;SDS011;3281;47.658;9.166;2024-03-02T13:21:04;1.48;;;1.00;;
6495;SDS011;3281;47.658;9.166;2024-03-02T13:23:31;1.15;;;1.08;;
6495;SDS011;3281;47.658;9.166;2024-03-02T13:25:57;1.33;;;1.15;;
6495;SDS011;3281;47.658;9.166;2024-03-02T13:28:24;0.95;;;0.90;;
6495;SDS011;3281;47.658;9.166;2024-03-02T13:30:51;1.02;;;1.00;;
6495;SDS011;3281;47.658;9.166;2024-03-02T13:33:19;1.35;;;1.17;;
6495;SDS011;3281;47.658;9.166;2024-03-02T13:35:47;0.50;;;0.50;;
6495;SDS011;3281;47.658;9.166;2024-03-02T13:38:14;0.65;;;0.65;;
6495;SDS011;3281;47.658;9.166;2024-03-02T13:40:41;1.42;;;0.63;;
6495;SDS011;3281;47.658;9.166;2024-03-02T13:43:08;0.88;;;0.85;;
6495;SDS011;3281;47.658;9.166;2024-03-02T13:45:35;0.63;;;0.63;;
6495;SDS011;3281;47.658;9.166;2024-03-02T13:48:03;0.70;;;0.70;;
6495;SDS011;3281;47.658;9.166;2024-03-02T13:50:31;0.50;;;0.50;;
6495;SDS011;3281;47.658;9.166;2024-03-02T13:52:58;0.60;;;0.60;;
6495;SDS011;3281;47.658;9.166;2024-03-02T13:55:25;0.47;;;0.45;;
6495;SDS011;3281;47.658;9.166;2024-03-02T13:57:51;0.20;;;0.20;;
6495;SDS011;3281;47.658;9.166;2024-03-02T14:00:18;0.50;;;0.50;;
6495;SDS011;3281;47.658;9.166;2024-03-02T14:02:45;0.65;;;0.65;;
6495;SDS011;3281;47.658;9.166;2024-03-02T14:05:14;0.50;;;0.50;;
6495;SDS011;3281;47.658;9.166;2024-03-02T14:07:42;0.30;;;0.30;;
6495;SDS011;3281;47.658;9.166;2024-03-02T14:10:09;0.40;;;0.40;;
6495;SDS011;3281;47.658;9.166;2024-03-02T14:12:36;0.60;;;0.60;;
6495;SDS011;3281;47.658;9.166;2024-03-02T14:15:03;1.10;;;0.57;;
6495;SDS011;3281;47.658;9.166;2024-03-02T14:17:31;0.50;;;0.50;;
6495;SDS011;3281;47.658;9.166;2024-03-02T14:19:58;0.75;;;0.75;;
6495;SDS011;3281;47.658;9.166;2024-03-02T14:22:24;1.02;;;0.93;;
6495;SDS011;3281;47.658;9.166;2024-03-02T14:24:52;0.70;;;0.70;;
6495;SDS011;3281;47.658;9.166;2024-03-02T14:27:19;0.88;;;0.88;;
6495;SDS011;3281;47.658;9.166;2024-03-02T14:29:46;0.75;;;0.40;;
6495;SDS011;3281;47.658;9.166;2024-03-02T14:32:13;1.65;;;1.17;;
6495;SDS011;3281;47.658;9.166;2024-03-02T14:34:39;0.90;;;0.75;;
6495;SDS011;3281;47.658;9.166;2024-03-02T14:37:06;1.08;;;0.73;;
6495;SDS011;3281;47.658;9.166;2024-03-02T14:39:33;0.47;;;0.47;;
6495;SDS011;3281;47.658;9.166;2024-03-02T14:42:02;2.60;;;1.85;;
6495;SDS011;3281;47.658;9.166;2024-03-02T14:44:29;0.50;;;0.50;;
6495;SDS011;3281;47.658;9.166;2024-03-02T14:46:56;0.57;;;0.57;;
6495;SDS011;3281;47.658;9.166;2024-03-02T14:49:23;1.50;;;0.63;;
6495;SDS011;3281;47.658;9.166;2024-03-02T14:51:50;0.73;;;0.50;;
6495;SDS011;3281;47.658;9.166;2024-03-02T14:54:18;1.20;;;1.02;;
6495;SDS011;3281;47.658;9.166;2024-03-02T14:56:44;0.70;;;0.70;;
6495;SDS011;3281;47.658;9.166;2024-03-02T14:59:13;0.88;;;0.88;;
6495;SDS011;3281;47.658;9.166;2024-03-02T15:01:40;0.57;;;0.57;;
6495;SDS011;3281;47.658;9.166;2024-03-02T15:04:06;0.50;;;0.50;;
6495;SDS011;3281;47.658;9.166;2024-03-02T15:06:33;0.50;;;0.50;;
6495;SDS011;3281;47.658;9.166;2024-03-02T15:09:00;0.57;;;0.55;;
6495;SDS011;3281;47.658;9.166;2024-03-02T15:11:27;1.10;;;0.80;;
6495;SDS011;3281;47.658;9.166;2024-03-02T15:13:55;0.52;;;0.52;;
6495;SDS011;3281;47.658;9.166;2024-03-02T15:16:23;0.93;;;0.75;;
6495;SDS011;3281;47.658;9.166;2024-03-02T15:18:50;1.35;;;1.20;;
6495;SDS011;3281;47.658;9.166;2024-03-02T15:21:16;0.50;;;0.50;;